Wetterdaten: Woche 14.06.21 - 20.06.21 (KW24)
Datum Zeit Temp. Aussen Temp. o. S. Temp +5cm Feuchte Auss Luftdruck Regen Sonnenschein Regendauer Solar Windben Empfang
14.06.2021 00:00 16,0 C 14,5 C 12,9 C 77 % 1024,7 hPa 0,0 l/m 0,00 h 0,00 h 0 W/m 0,0 km/h (0 Bft) 92,69 %
14.06.2021 01:00 15,2 C 14,1 C 12,2 C 80 % 1024,5 hPa 0,0 l/m 0,00 h 0,00 h 0 W/m 0,0 km/h (0 Bft) 95,67 %
14.06.2021 02:00 14,4 C 13,0 C 11,5 C 83 % 1024,1 hPa 0,0 l/m 0,00 h 0,00 h 0 W/m 0,0 km/h (0 Bft) 98,15 %
14.06.2021 03:00 13,6 C 12,3 C 10,8 C 86 % 1023,6 hPa 0,0 l/m 0,00 h 0,00 h 0 W/m 0,0 km/h (0 Bft) 99,22 %
14.06.2021 04:00 12,8 C 11,7 C 10,2 C 88 % 1023,2 hPa 0,0 l/m 0,00 h 0,00 h 0 W/m 0,0 km/h (0 Bft) 98,91 %
14.06.2021 05:00 12,2 C 11,8 C 10,1 C 89 % 1022,8 hPa 0,0 l/m 0,00 h 0,00 h 9 W/m 0,5 km/h (0 Bft) 95,70 %
14.06.2021 06:00 12,9 C 13,1 C 11,3 C 87 % 1022,7 hPa 0,0 l/m 0,00 h 0,00 h 20 W/m 4,0 km/h (1 Bft) 97,96 %
14.06.2021 07:00 14,8 C 14,9 C 12,8 C 82 % 1022,7 hPa 0,0 l/m 0,33 h 0,00 h 128 W/m 8,9 km/h (2 Bft) 97,52 %
14.06.2021 08:00 17,9 C 19,3 C 16,3 C 72 % 1022,7 hPa 0,0 l/m 1,00 h 0,00 h 426 W/m 15,8 km/h (3 Bft) 95,95 %
14.06.2021 09:00 20,8 C 24,6 C 21,7 C 65 % 1022,5 hPa 0,0 l/m 1,00 h 0,00 h 593 W/m 14,4 km/h (3 Bft) 95,83 %
14.06.2021 10:00 22,9 C 25,3 C 28,5 C 61 % 1022,0 hPa 0,0 l/m 1,00 h 0,00 h 737 W/m 14,4 km/h (3 Bft) 97,32 %
14.06.2021 11:00 24,9 C 27,1 C 26,5 C 55 % 1021,4 hPa 0,0 l/m 1,00 h 0,00 h 852 W/m 12,6 km/h (3 Bft) 97,77 %
14.06.2021 12:00 26,5 C 28,0 C 34,8 C 49 % 1021,1 hPa 0,0 l/m 1,00 h 0,00 h 921 W/m 13,3 km/h (3 Bft) 97,98 %
14.06.2021 13:00 27,6 C 29,5 C 39,1 C 47 % 1020,7 hPa 0,0 l/m 1,00 h 0,00 h 945 W/m 9,2 km/h (2 Bft) 96,66 %
14.06.2021 14:00 29,0 C 31,5 C 27,6 C 45 % 1020,1 hPa 0,0 l/m 1,00 h 0,00 h 931 W/m 10,6 km/h (2 Bft) 97,87 %
14.06.2021 15:00 29,5 C 31,9 C 26,6 C 44 % 1019,5 hPa 0,0 l/m 1,00 h 0,00 h 865 W/m 10,8 km/h (2 Bft) 98,14 %
14.06.2021 16:00 30,0 C 34,6 C 27,2 C 45 % 1019,1 hPa 0,0 l/m 1,00 h 0,00 h 744 W/m 9,2 km/h (2 Bft) 97,59 %
14.06.2021 17:00 30,3 C 35,2 C 27,6 C 44 % 1018,5 hPa 0,0 l/m 1,00 h 0,00 h 607 W/m 8,6 km/h (2 Bft) 97,65 %
14.06.2021 18:00 30,3 C 34,8 C 27,6 C 43 % 1018,0 hPa 0,0 l/m 1,00 h 0,00 h 442 W/m 10,0 km/h (2 Bft) 96,02 %
14.06.2021 19:00 29,6 C 29,6 C 25,3 C 45 % 1017,9 hPa 0,0 l/m 1,00 h 0,00 h 263 W/m 7,2 km/h (2 Bft) 96,99 %
14.06.2021 20:00 28,3 C 26,8 C 23,2 C 50 % 1017,7 hPa 0,0 l/m 0,00 h 0,00 h 39 W/m 3,1 km/h (1 Bft) 99,79 %
14.06.2021 21:00 26,5 C 24,0 C 20,8 C 57 % 1018,0 hPa 0,0 l/m 0,00 h 0,00 h 10 W/m 3,3 km/h (1 Bft) 95,16 %
14.06.2021 22:00 24,2 C 22,0 C 19,1 C 62 % 1018,4 hPa 0,0 l/m 0,00 h 0,00 h 0 W/m 1,6 km/h (1 Bft) 98,65 %
14.06.2021 23:00 22,5 C 21,3 C 18,9 C 64 % 1018,7 hPa 0,0 l/m 0,00 h 0,00 h 0 W/m 12,9 km/h (3 Bft) 99,86 %
15.06.2021 00:00 21,2 C 20,0 C 17,7 C 70 % 1019,1 hPa 0,0 l/m 0,00 h 0,00 h 0 W/m 8,4 km/h (2 Bft) 95,77 %
15.06.2021 01:00 20,1 C 18,9 C 16,7 C 75 % 1019,1 hPa 0,0 l/m 0,00 h 0,00 h 0 W/m 4,9 km/h (1 Bft) 97,15 %
15.06.2021 02:00 19,2 C 17,8 C 15,6 C 79 % 1019,1 hPa 0,0 l/m 0,00 h 0,00 h 0 W/m 2,9 km/h (1 Bft) 99,07 %
15.06.2021 03:00 18,0 C 16,8 C 15,0 C 84 % 1019,2 hPa 0,0 l/m 0,00 h 0,00 h 0 W/m 2,2 km/h (1 Bft) 96,15 %
15.06.2021 04:00 17,4 C 16,6 C 14,6 C 87 % 1019,2 hPa 0,0 l/m 0,00 h 0,00 h 0 W/m 4,6 km/h (1 Bft) 98,22 %
15.06.2021 05:00 17,0 C 16,1 C 14,5 C 89 % 1019,5 hPa 0,0 l/m 0,00 h 0,00 h 14 W/m 5,7 km/h (1 Bft) 97,15 %
15.06.2021 06:00 17,0 C 16,6 C 14,7 C 90 % 1020,0 hPa 0,0 l/m 0,00 h 0,00 h 46 W/m 9,6 km/h (2 Bft) 96,02 %
15.06.2021 07:00 17,4 C 17,5 C 15,4 C 89 % 1020,3 hPa 0,0 l/m 0,33 h 0,00 h 148 W/m 8,1 km/h (2 Bft) 98,36 %
15.06.2021 08:00 19,6 C 21,9 C 18,3 C 83 % 1020,6 hPa 0,0 l/m 1,00 h 0,00 h 382 W/m 10,2 km/h (2 Bft) 97,15 %
15.06.2021 09:00 22,4 C 27,0 C 22,5 C 73 % 1020,9 hPa 0,0 l/m 1,00 h 0,00 h 557 W/m 11,2 km/h (2 Bft) 95,16 %
15.06.2021 10:00 23,5 C 26,1 C 25,6 C 67 % 1020,8 hPa 0,0 l/m 0,93 h 0,00 h 670 W/m 11,8 km/h (2 Bft) 98,99 %
15.06.2021 11:00 24,1 C 26,8 C 25,6 C 64 % 1020,8 hPa 0,0 l/m 1,00 h 0,00 h 752 W/m 14,1 km/h (3 Bft) 95,09 %
15.06.2021 12:00 25,0 C 27,1 C 30,3 C 57 % 1020,8 hPa 0,0 l/m 1,00 h 0,00 h 854 W/m 16,0 km/h (3 Bft) 96,06 %
15.06.2021 13:00 25,7 C 27,9 C 31,5 C 55 % 1020,6 hPa 0,0 l/m 1,00 h 0,00 h 923 W/m 18,3 km/h (3 Bft) 98,43 %
15.06.2021 14:00 26,2 C 28,5 C 25,2 C 53 % 1020,4 hPa 0,0 l/m 0,97 h 0,00 h 765 W/m 17,9 km/h (3 Bft) 98,00 %
15.06.2021 15:00 26,1 C 28,4 C 24,4 C 52 % 1020,2 hPa 0,0 l/m 1,00 h 0,00 h 675 W/m 15,9 km/h (3 Bft) 97,44 %
15.06.2021 16:00 26,7 C 30,5 C 24,7 C 51 % 1019,7 hPa 0,0 l/m 0,97 h 0,00 h 630 W/m 13,0 km/h (3 Bft) 96,16 %
15.06.2021 17:00 27,1 C 31,5 C 25,1 C 52 % 1019,3 hPa 0,0 l/m 1,00 h 0,00 h 592 W/m 13,4 km/h (3 Bft) 99,15 %
15.06.2021 18:00 26,9 C 29,0 C 24,5 C 52 % 1019,0 hPa 0,0 l/m 0,97 h 0,00 h 343 W/m 12,4 km/h (3 Bft) 99,00 %
15.06.2021 19:00 25,5 C 25,5 C 22,7 C 54 % 1018,7 hPa 0,0 l/m 0,63 h 0,00 h 179 W/m 10,6 km/h (2 Bft) 93,92 %
15.06.2021 20:00 23,9 C 23,3 C 20,9 C 57 % 1018,5 hPa 0,0 l/m 0,03 h 0,00 h 68 W/m 12,0 km/h (2 Bft) 99,44 %
15.06.2021 21:00 22,9 C 21,8 C 19,7 C 59 % 1018,5 hPa 0,0 l/m 0,37 h 0,00 h 22 W/m 9,7 km/h (2 Bft) 98,15 %
15.06.2021 22:00 21,7 C 20,5 C 18,4 C 62 % 1018,8 hPa 0,0 l/m 0,00 h 0,00 h 5 W/m 6,9 km/h (2 Bft) 96,08 %
15.06.2021 23:00 20,7 C 19,5 C 17,4 C 64 % 1018,7 hPa 0,0 l/m 0,00 h 0,00 h 0 W/m 4,5 km/h (1 Bft) 98,04 %
16.06.2021 00:00 19,7 C 18,5 C 16,3 C 68 % 1018,4 hPa 0,0 l/m 0,00 h 0,00 h 0 W/m 1,8 km/h (1 Bft) 97,27 %
16.06.2021 01:00 18,9 C 17,6 C 15,4 C 72 % 1017,9 hPa 0,0 l/m 0,00 h 0,00 h 0 W/m 1,0 km/h (0 Bft) 98,40 %
16.06.2021 02:00 18,0 C 16,7 C 14,7 C 75 % 1017,6 hPa 0,0 l/m 0,00 h 0,00 h 0 W/m 0,3 km/h (0 Bft) 99,19 %
16.06.2021 03:00 17,1 C 16,0 C 13,9 C 78 % 1017,2 hPa 0,0 l/m 0,00 h 0,00 h 0 W/m 0,0 km/h (0 Bft) 95,87 %
16.06.2021 04:00 16,6 C 15,7 C 13,7 C 79 % 1016,9 hPa 0,0 l/m 0,00 h 0,00 h 0 W/m 1,5 km/h (1 Bft) 97,72 %
16.06.2021 05:00 16,1 C 15,5 C 13,4 C 82 % 1016,6 hPa 0,0 l/m 0,00 h 0,00 h 11 W/m 2,2 km/h (1 Bft) 98,01 %
16.06.2021 06:00 16,2 C 16,0 C 13,6 C 84 % 1016,2 hPa 0,0 l/m 0,00 h 0,00 h 41 W/m 2,9 km/h (1 Bft) 99,49 %
16.06.2021 07:00 17,1 C 17,4 C 14,9 C 84 % 1015,8 hPa 0,0 l/m 0,20 h 0,00 h 113 W/m 3,7 km/h (1 Bft) 96,58 %
16.06.2021 08:00 20,2 C 22,8 C 18,6 C 78 % 1015,6 hPa 0,0 l/m 1,00 h 0,00 h 347 W/m 5,3 km/h (1 Bft) 96,23 %
16.06.2021 09:00 24,0 C 28,5 C 23,2 C 67 % 1015,0 hPa 0,0 l/m 1,00 h 0,00 h 507 W/m 7,3 km/h (2 Bft) 98,37 %
16.06.2021 10:00 25,7 C 28,9 C 28,7 C 64 % 1014,6 hPa 0,0 l/m 1,00 h 0,00 h 671 W/m 7,7 km/h (2 Bft) 98,63 %
16.06.2021 11:00 27,1 C 29,9 C 28,6 C 62 % 1014,2 hPa 0,0 l/m 1,00 h 0,00 h 774 W/m 9,3 km/h (2 Bft) 96,60 %
16.06.2021 12:00 29,0 C 31,0 C 34,2 C 60 % 1013,8 hPa 0,0 l/m 1,00 h 0,00 h 872 W/m 9,8 km/h (2 Bft) 97,27 %
16.06.2021 13:00 30,5 C 32,2 C 38,3 C 56 % 1013,4 hPa 0,0 l/m 1,00 h 0,00 h 893 W/m 9,3 km/h (2 Bft) 99,50 %
16.06.2021 14:00 31,7 C 33,8 C 30,0 C 54 % 1012,8 hPa 0,0 l/m 1,00 h 0,00 h 892 W/m 11,2 km/h (2 Bft) 95,70 %
16.06.2021 15:00 32,4 C 34,4 C 29,3 C 53 % 1012,3 hPa 0,0 l/m 1,00 h 0,00 h 829 W/m 10,7 km/h (2 Bft) 97,87 %
16.06.2021 16:00 33,0 C 36,6 C 29,5 C 51 % 1011,8 hPa 0,0 l/m 1,00 h 0,00 h 735 W/m 10,5 km/h (2 Bft) 98,39 %
16.06.2021 17:00 33,3 C 37,4 C 29,8 C 50 % 1011,4 hPa 0,0 l/m 1,00 h 0,00 h 597 W/m 10,2 km/h (2 Bft) 97,94 %
16.06.2021 18:00 32,8 C 36,5 C 29,4 C 51 % 1011,0 hPa 0,0 l/m 1,00 h 0,00 h 409 W/m 8,8 km/h (2 Bft) 97,36 %
16.06.2021 19:00 32,1 C 31,5 C 27,5 C 55 % 1010,9 hPa 0,0 l/m 1,00 h 0,00 h 243 W/m 5,1 km/h (1 Bft) 96,94 %
16.06.2021 20:00 30,6 C 28,2 C 24,5 C 61 % 1010,9 hPa 0,0 l/m 0,03 h 0,00 h 58 W/m 1,8 km/h (1 Bft) 96,34 %
16.06.2021 21:00 29,1 C 26,5 C 23,2 C 67 % 1010,7 hPa 0,0 l/m 0,60 h 0,00 h 26 W/m 0,4 km/h (0 Bft) 99,08 %
16.06.2021 22:00 27,0 C 24,3 C 21,7 C 74 % 1011,0 hPa 0,0 l/m 0,00 h 0,00 h 1 W/m 0,1 km/h (0 Bft) 97,19 %
16.06.2021 23:00 24,9 C 22,9 C 20,6 C 80 % 1011,2 hPa 0,0 l/m 0,00 h 0,00 h 0 W/m 0,4 km/h (0 Bft) 97,00 %
17.06.2021 00:00 23,5 C 21,8 C 19,8 C 83 % 1011,0 hPa 0,0 l/m 0,00 h 0,00 h 0 W/m 0,2 km/h (0 Bft) 96,17 %
17.06.2021 01:00 22,5 C 21,7 C 19,6 C 82 % 1010,7 hPa 0,0 l/m 0,00 h 0,00 h 0 W/m 1,8 km/h (1 Bft) 96,68 %
17.06.2021 02:00 22,5 C 22,0 C 19,8 C 78 % 1010,3 hPa 0,0 l/m 0,00 h 0,00 h 0 W/m 3,3 km/h (1 Bft) 96,30 %
17.06.2021 03:00 22,2 C 21,3 C 19,3 C 78 % 1010,1 hPa 0,0 l/m 0,00 h 0,00 h 0 W/m 3,8 km/h (1 Bft) 99,71 %
17.06.2021 04:00 21,6 C 20,6 C 18,7 C 78 % 1010,1 hPa 0,0 l/m 0,00 h 0,00 h 0 W/m 5,7 km/h (1 Bft) 97,80 %
17.06.2021 05:00 21,0 C 20,0 C 18,1 C 80 % 1010,1 hPa 0,0 l/m 0,00 h 0,00 h 11 W/m 7,1 km/h (2 Bft) 95,86 %
17.06.2021 06:00 21,0 C 20,4 C 18,5 C 81 % 1010,1 hPa 0,0 l/m 0,00 h 0,00 h 28 W/m 7,0 km/h (2 Bft) 98,67 %
17.06.2021 07:00 22,6 C 22,6 C 20,2 C 77 % 1010,3 hPa 0,0 l/m 0,13 h 0,00 h 124 W/m 8,2 km/h (2 Bft) 97,72 %
17.06.2021 08:00 24,5 C 24,5 C 22,0 C 72 % 1010,6 hPa 0,0 l/m 0,40 h 0,00 h 227 W/m 14,3 km/h (3 Bft) 97,64 %
17.06.2021 09:00 26,5 C 29,0 C 25,9 C 67 % 1010,7 hPa 0,0 l/m 0,80 h 0,00 h 479 W/m 12,1 km/h (2 Bft) 97,21 %
17.06.2021 10:00 29,3 C 31,4 C 33,6 C 59 % 1010,9 hPa 0,0 l/m 1,00 h 0,00 h 681 W/m 17,2 km/h (3 Bft) 98,54 %
17.06.2021 11:00 31,1 C 32,8 C 32,5 C 54 % 1010,4 hPa 0,0 l/m 1,00 h 0,00 h 795 W/m 11,7 km/h (2 Bft) 98,36 %
17.06.2021 12:00 32,6 C 33,7 C 37,1 C 53 % 1009,9 hPa 0,0 l/m 1,00 h 0,00 h 868 W/m 12,4 km/h (3 Bft) 96,52 %
17.06.2021 13:00 34,0 C 34,8 C 41,6 C 50 % 1010,1 hPa 0,0 l/m 1,00 h 0,00 h 903 W/m 16,5 km/h (3 Bft) 97,57 %
17.06.2021 14:00 35,0 C 36,7 C 33,6 C 48 % 1010,2 hPa 0,0 l/m 1,00 h 0,00 h 880 W/m 16,2 km/h (3 Bft) 99,73 %
17.06.2021 15:00 35,0 C 36,8 C 32,2 C 47 % 1010,3 hPa 0,0 l/m 1,00 h 0,00 h 797 W/m 13,1 km/h (3 Bft) 95,57 %
17.06.2021 16:00 35,0 C 38,4 C 32,0 C 47 % 1010,3 hPa 0,0 l/m 1,00 h 0,00 h 707 W/m 11,2 km/h (2 Bft) 97,30 %
17.06.2021 17:00 35,6 C 38,4 C 31,9 C 47 % 1010,3 hPa 0,0 l/m 1,00 h 0,00 h 565 W/m 10,8 km/h (2 Bft) 98,34 %
17.06.2021 18:00 34,7 C 36,9 C 31,2 C 49 % 1010,6 hPa 0,0 l/m 0,97 h 0,00 h 395 W/m 11,2 km/h (2 Bft) 96,79 %
17.06.2021 19:00 33,1 C 32,4 C 29,2 C 52 % 1010,8 hPa 0,0 l/m 0,70 h 0,00 h 202 W/m 9,3 km/h (2 Bft) 99,65 %
17.06.2021 20:00 31,2 C 29,8 C 27,2 C 57 % 1011,1 hPa 0,0 l/m 0,00 h 0,00 h 60 W/m 4,4 km/h (1 Bft) 95,94 %
17.06.2021 21:00 29,4 C 27,6 C 25,2 C 60 % 1011,6 hPa 0,0 l/m 0,00 h 0,00 h 13 W/m 3,0 km/h (1 Bft) 98,14 %
17.06.2021 22:00 27,8 C 26,2 C 24,0 C 65 % 1012,3 hPa 0,0 l/m 0,00 h 0,00 h 0 W/m 5,8 km/h (2 Bft) 97,79 %
17.06.2021 23:00 26,8 C 25,5 C 23,4 C 70 % 1012,7 hPa 0,0 l/m 0,00 h 0,00 h 0 W/m 7,8 km/h (2 Bft) 96,44 %
18.06.2021 00:00 25,9 C 24,8 C 22,6 C 73 % 1013,1 hPa 0,0 l/m 0,00 h 0,00 h 0 W/m 10,1 km/h (2 Bft) 98,67 %
18.06.2021 01:00 24,9 C 23,8 C 21,7 C 77 % 1013,2 hPa 0,0 l/m 0,00 h 0,00 h 0 W/m 10,5 km/h (2 Bft) 96,65 %
18.06.2021 02:00 23,9 C 23,0 C 20,7 C 78 % 1012,9 hPa 0,0 l/m 0,00 h 0,00 h 0 W/m 6,7 km/h (2 Bft) 98,50 %
18.06.2021 03:00 22,8 C 21,9 C 19,8 C 81 % 1012,5 hPa 0,0 l/m 0,00 h 0,00 h 0 W/m 4,8 km/h (1 Bft) 97,79 %
18.06.2021 04:00 22,1 C 21,2 C 19,2 C 84 % 1012,3 hPa 0,0 l/m 0,00 h 0,00 h 0 W/m 2,5 km/h (1 Bft) 96,30 %
18.06.2021 05:00 21,8 C 21,1 C 19,2 C 85 % 1012,4 hPa 0,0 l/m 0,00 h 0,00 h 15 W/m 1,1 km/h (0 Bft) 99,57 %
18.06.2021 06:00 22,2 C 22,1 C 19,8 C 86 % 1012,3 hPa 0,0 l/m 0,00 h 0,00 h 57 W/m 1,5 km/h (1 Bft) 96,32 %
18.06.2021 07:00 23,3 C 23,3 C 21,0 C 84 % 1012,7 hPa 0,0 l/m 0,33 h 0,00 h 155 W/m 8,9 km/h (2 Bft) 96,73 %
18.06.2021 08:00 25,2 C 26,9 C 23,6 C 79 % 1013,2 hPa 0,0 l/m 1,00 h 0,00 h 392 W/m 8,4 km/h (2 Bft) 99,71 %
18.06.2021 09:00 26,9 C 28,3 C 24,8 C 74 % 1013,0 hPa 0,0 l/m 0,27 h 0,00 h 305 W/m 6,5 km/h (2 Bft) 96,72 %
18.06.2021 10:00 26,5 C 27,2 C 24,5 C 78 % 1012,9 hPa 0,0 l/m 0,17 h 0,00 h 242 W/m 4,7 km/h (1 Bft) 96,51 %
18.06.2021 11:00 28,3 C 30,6 C 28,0 C 71 % 1012,7 hPa 0,0 l/m 0,77 h 0,00 h 635 W/m 6,2 km/h (2 Bft) 99,14 %
18.06.2021 12:00 30,8 C 32,9 C 35,1 C 60 % 1012,3 hPa 0,0 l/m 1,00 h 0,00 h 782 W/m 7,6 km/h (2 Bft) 95,50 %
18.06.2021 13:00 32,3 C 33,2 C 36,0 C 54 % 1012,2 hPa 0,0 l/m 0,93 h 0,00 h 758 W/m 12,2 km/h (2 Bft) 96,45 %
18.06.2021 14:00 33,3 C 35,1 C 31,4 C 50 % 1011,8 hPa 0,0 l/m 1,00 h 0,00 h 833 W/m 13,0 km/h (3 Bft) 97,82 %
18.06.2021 15:00 34,1 C 36,0 C 31,2 C 47 % 1011,1 hPa 0,0 l/m 1,00 h 0,00 h 824 W/m 14,4 km/h (3 Bft) 96,71 %
18.06.2021 16:00 34,2 C 35,6 C 30,7 C 47 % 1010,6 hPa 0,0 l/m 0,63 h 0,00 h 527 W/m 15,8 km/h (3 Bft) 99,36 %
18.06.2021 17:00 33,1 C 33,4 C 28,1 C 51 % 1010,1 hPa 0,2 l/m 0,50 h 0,23 h 357 W/m 16,1 km/h (3 Bft) 95,87 %
18.06.2021 18:00 32,4 C 34,0 C 27,4 C 54 % 1009,7 hPa 0,0 l/m 0,77 h 0,00 h 326 W/m 14,7 km/h (3 Bft) 98,27 %
18.06.2021 19:00 32,1 C 31,5 C 28,5 C 52 % 1009,9 hPa 0,0 l/m 0,43 h 0,00 h 173 W/m 15,8 km/h (3 Bft) 96,94 %
18.06.2021 20:00 31,0 C 29,9 C 27,3 C 52 % 1010,4 hPa 0,0 l/m 0,03 h 0,00 h 57 W/m 21,2 km/h (4 Bft) 97,15 %
18.06.2021 21:00 29,5 C 28,2 C 25,8 C 56 % 1010,8 hPa 0,0 l/m 0,00 h 0,00 h 15 W/m 17,4 km/h (3 Bft) 99,36 %
18.06.2021 22:00 28,0 C 26,5 C 24,1 C 62 % 1011,3 hPa 0,0 l/m 0,00 h 0,00 h 0 W/m 10,0 km/h (2 Bft) 97,08 %
18.06.2021 23:00 26,9 C 25,8 C 23,2 C 66 % 1011,8 hPa 0,0 l/m 0,00 h 0,00 h 0 W/m 7,4 km/h (2 Bft) 96,52 %
19.06.2021 00:00 25,8 C 24,5 C 22,3 C 70 % 1012,5 hPa 0,0 l/m 0,00 h 0,00 h 0 W/m 7,2 km/h (2 Bft) 98,65 %
19.06.2021 01:00 24,7 C 23,6 C 21,4 C 72 % 1012,6 hPa 0,0 l/m 0,00 h 0,00 h 0 W/m 6,6 km/h (2 Bft) 98,49 %
19.06.2021 02:00 23,7 C 22,6 C 20,4 C 74 % 1013,0 hPa 0,0 l/m 0,00 h 0,00 h 0 W/m 4,8 km/h (1 Bft) 97,51 %
19.06.2021 03:00 22,8 C 21,8 C 19,8 C 76 % 1013,1 hPa 0,0 l/m 0,00 h 0,00 h 0 W/m 5,8 km/h (2 Bft) 96,66 %
19.06.2021 04:00 22,2 C 21,1 C 19,4 C 78 % 1013,3 hPa 0,0 l/m 0,00 h 0,00 h 0 W/m 12,0 km/h (2 Bft) 98,98 %
19.06.2021 05:00 21,4 C 20,5 C 18,8 C 81 % 1013,8 hPa 0,0 l/m 0,00 h 0,00 h 9 W/m 8,8 km/h (2 Bft) 97,93 %
19.06.2021 06:00 20,9 C 20,0 C 18,4 C 83 % 1014,3 hPa 0,0 l/m 0,00 h 0,00 h 20 W/m 9,9 km/h (2 Bft) 96,62 %
19.06.2021 07:00 21,0 C 20,5 C 18,7 C 82 % 1014,8 hPa 0,0 l/m 0,20 h 0,00 h 118 W/m 17,5 km/h (3 Bft) 97,80 %
19.06.2021 08:00 21,8 C 23,1 C 20,7 C 79 % 1015,1 hPa 0,0 l/m 1,00 h 0,00 h 424 W/m 17,9 km/h (3 Bft) 96,79 %
19.06.2021 09:00 23,7 C 28,3 C 25,5 C 73 % 1015,2 hPa 0,0 l/m 1,00 h 0,00 h 576 W/m 14,5 km/h (3 Bft) 97,19 %
19.06.2021 10:00 25,7 C 28,3 C 30,7 C 66 % 1014,9 hPa 0,0 l/m 1,00 h 0,00 h 703 W/m 9,4 km/h (2 Bft) 97,89 %
19.06.2021 11:00 26,8 C 29,2 C 28,8 C 63 % 1014,6 hPa 0,0 l/m 1,00 h 0,00 h 825 W/m 11,1 km/h (2 Bft) 96,62 %
19.06.2021 12:00 28,2 C 29,7 C 35,5 C 60 % 1014,3 hPa 0,0 l/m 1,00 h 0,00 h 882 W/m 11,4 km/h (2 Bft) 99,14 %
19.06.2021 13:00 29,2 C 30,2 C 36,1 C 58 % 1013,8 hPa 0,0 l/m 1,00 h 0,00 h 846 W/m 10,7 km/h (2 Bft) 97,36 %
19.06.2021 14:00 29,7 C 31,3 C 28,6 C 57 % 1013,5 hPa 0,0 l/m 0,90 h 0,00 h 756 W/m 11,4 km/h (2 Bft) 96,00 %
19.06.2021 15:00 29,9 C 31,0 C 27,3 C 58 % 1013,3 hPa 0,0 l/m 0,90 h 0,00 h 588 W/m 9,5 km/h (2 Bft) 99,28 %
19.06.2021 16:00 30,0 C 33,7 C 27,3 C 59 % 1012,8 hPa 0,0 l/m 1,00 h 0,00 h 704 W/m 9,2 km/h (2 Bft) 96,59 %
19.06.2021 17:00 30,7 C 34,7 C 28,0 C 58 % 1012,2 hPa 0,0 l/m 1,00 h 0,00 h 604 W/m 12,3 km/h (3 Bft) 95,34 %
19.06.2021 18:00 30,5 C 33,7 C 28,6 C 59 % 1011,4 hPa 0,0 l/m 1,00 h 0,00 h 482 W/m 17,8 km/h (3 Bft) 99,24 %
19.06.2021 19:00 28,6 C 28,7 C 26,1 C 64 % 1010,8 hPa 0,0 l/m 0,93 h 0,00 h 231 W/m 16,2 km/h (3 Bft) 98,04 %
19.06.2021 20:00 26,3 C 25,5 C 23,6 C 71 % 1010,2 hPa 0,0 l/m 0,00 h 0,00 h 67 W/m 15,2 km/h (3 Bft) 95,89 %
19.06.2021 21:00 25,2 C 24,2 C 22,4 C 75 % 1009,8 hPa 0,0 l/m 0,00 h 0,00 h 9 W/m 10,8 km/h (2 Bft) 98,42 %
19.06.2021 22:00 24,6 C 23,9 C 21,8 C 78 % 1008,7 hPa 0,0 l/m 0,00 h 0,00 h 0 W/m 5,7 km/h (1 Bft) 98,81 %
19.06.2021 23:00 24,3 C 23,0 C 20,5 C 79 % 1008,3 hPa 0,8 l/m 0,00 h 0,77 h 0 W/m 4,8 km/h (1 Bft) 97,01 %
20.06.2021 00:00 22,3 C 20,2 C 18,3 C 90 % 1009,2 hPa 4,8 l/m 0,00 h 1,00 h 0 W/m 4,9 km/h (1 Bft) 96,66 %
20.06.2021 01:00 21,1 C 19,7 C 18,0 C 95 % 1007,6 hPa 0,2 l/m 0,00 h 0,40 h 0 W/m 5,1 km/h (1 Bft) 98,94 %
20.06.2021 02:00 20,5 C 19,5 C 17,8 C 97 % 1006,5 hPa 0,0 l/m 0,00 h 0,00 h 0 W/m 5,2 km/h (1 Bft) 98,00 %
20.06.2021 03:00 20,3 C 19,6 C 17,6 C 97 % 1006,0 hPa 0,0 l/m 0,00 h 0,00 h 0 W/m 10,3 km/h (2 Bft) 97,53 %
20.06.2021 04:00 20,0 C 19,3 C 17,3 C 96 % 1006,5 hPa 0,0 l/m 0,00 h 0,00 h 0 W/m 13,4 km/h (3 Bft) 96,91 %
20.06.2021 05:00 20,2 C 19,5 C 18,1 C 95 % 1007,5 hPa 0,0 l/m 0,00 h 0,00 h 6 W/m 20,0 km/h (4 Bft) 96,71 %
20.06.2021 06:00 19,9 C 19,1 C 18,2 C 93 % 1007,8 hPa 0,0 l/m 0,00 h 0,00 h 33 W/m 20,2 km/h (4 Bft) 97,67 %
20.06.2021 07:00 20,3 C 19,9 C 18,9 C 89 % 1008,3 hPa 0,0 l/m 0,20 h 0,00 h 127 W/m 24,7 km/h (4 Bft) 98,80 %
20.06.2021 08:00 21,2 C 21,9 C 20,2 C 85 % 1008,6 hPa 0,0 l/m 0,60 h 0,00 h 299 W/m 25,3 km/h (4 Bft) 96,58 %
20.06.2021 09:00 22,6 C 26,0 C 23,8 C 77 % 1008,9 hPa 0,0 l/m 0,80 h 0,00 h 536 W/m 19,0 km/h (3 Bft) 96,67 %
20.06.2021 10:00 23,5 C 25,0 C 26,0 C 72 % 1009,1 hPa 0,0 l/m 0,73 h 0,00 h 595 W/m 22,6 km/h (4 Bft) 99,79 %
20.06.2021 11:00 24,5 C 26,0 C 25,3 C 67 % 1009,3 hPa 0,0 l/m 0,63 h 0,00 h 639 W/m 27,1 km/h (4 Bft) 96,40 %
20.06.2021 12:00 25,1 C 26,6 C 29,2 C 65 % 1009,4 hPa 0,0 l/m 0,60 h 0,00 h 668 W/m 18,4 km/h (3 Bft) 97,07 %
20.06.2021 13:00 26,2 C 28,0 C 32,2 C 61 % 1008,9 hPa 0,0 l/m 0,77 h 0,00 h 802 W/m 16,2 km/h (3 Bft) 96,37 %
20.06.2021 14:00 27,0 C 29,5 C 26,7 C 58 % 1008,7 hPa 0,0 l/m 0,90 h 0,00 h 733 W/m 15,2 km/h (3 Bft) 97,15 %
20.06.2021 15:00 27,2 C 29,7 C 25,5 C 58 % 1008,4 hPa 0,0 l/m 0,87 h 0,00 h 769 W/m 14,2 km/h (3 Bft) 95,57 %
20.06.2021 16:00 27,2 C 29,1 C 25,5 C 59 % 1008,0 hPa 0,0 l/m 0,77 h 0,00 h 483 W/m 10,7 km/h (2 Bft) 92,73 %
20.06.2021 17:00 26,5 C 27,9 C 24,4 C 61 % 1007,8 hPa 0,0 l/m 0,43 h 0,00 h 328 W/m 8,7 km/h (2 Bft) 95,38 %
20.06.2021 18:00 27,1 C 30,1 C 24,8 C 59 % 1007,8 hPa 0,0 l/m 1,00 h 0,00 h 397 W/m 8,0 km/h (2 Bft) 96,43 %
20.06.2021 19:00 27,1 C 27,4 C 23,8 C 60 % 1007,0 hPa 0,0 l/m 0,53 h 0,00 h 233 W/m 8,0 km/h (2 Bft) 95,13 %
20.06.2021 20:00 25,4 C 24,4 C 22,1 C 64 % 1006,6 hPa 0,0 l/m 0,00 h 0,00 h 59 W/m 7,6 km/h (2 Bft) 99,14 %
20.06.2021 21:00 24,3 C 23,2 C 20,9 C 67 % 1006,8 hPa 0,0 l/m 0,00 h 0,00 h 10 W/m 6,7 km/h (2 Bft) 95,87 %
20.06.2021 22:00 23,7 C 22,8 C 20,5 C 68 % 1006,6 hPa 0,0 l/m 0,00 h 0,03 h 0 W/m 6,0 km/h (2 Bft) 96,86 %
20.06.2021 23:00 22,7 C 21,7 C 19,4 C 74 % 1005,9 hPa 0,0 l/m 0,00 h 0,00 h 0 W/m 9,7 km/h (2 Bft) 98,99 %
Min-Datum _ 14.06.21 14.06.21 14.06.21 14.06.21 20.06.21 - - - - 14.06.21 17.06.21
_ Min-Zeit 05:28 04:05 04:22 17:38 23:50 - - - - 00:00 00:02
Minimum _ 12,1 C 11,7 C 10,0 C 42 % 1005,5 hPa - - - - 0,0 km/h (0 Bft) 10,53 %
Max-Datum _ 17.06.21 17.06.21 17.06.21 20.06.21 14.06.21 20.06.21 14.06.21 20.06.21 20.06.21 20.06.21 14.06.21
_ Max-Zeit 17:12 16:50 13:22 02:42 00:26 00:08 12:08 00:08 13:26 11:22 02:36
Maximum _ 35,9 C 39,4 C 42,8 C 98 % 1024,8 hPa 4,8 l/m 0,07 h 0,07 h 1113 W/m 48,3 km/h
S-SO (6 Bft)
100,00 %
Durchschnitt _ 25,0 C 25,6 C 23,4 C 68 % 1014,0 hPa #6,0 l/m #77:58 h #2:30 h 437 W/m 9,4 km/h (2 Bft) 97,39 %
© 2021 W. Hausmann